createdAt,value
2018-11-07T00:03:21.646Z,9.71
2018-11-07T00:08:25.252Z,9.68
2018-11-07T00:13:28.786Z,9.57
2018-11-07T00:18:32.607Z,9.56
2018-11-07T00:23:36.216Z,9.47
2018-11-07T00:28:39.919Z,9.30
2018-11-07T00:33:43.963Z,9.16
2018-11-07T00:38:47.713Z,9.10
2018-11-07T00:43:51.788Z,8.96
2018-11-07T00:48:56.437Z,8.70
2018-11-07T00:54:00.114Z,8.63
2018-11-07T00:59:03.977Z,8.56
2018-11-07T01:04:07.756Z,8.58
2018-11-07T01:09:12.569Z,8.44
2018-11-07T01:14:16.123Z,8.21
2018-11-07T01:19:19.727Z,8.20
2018-11-07T01:24:23.362Z,8.25
2018-11-07T01:29:27.348Z,8.23
2018-11-07T01:34:30.908Z,8.07
2018-11-07T01:39:34.731Z,7.83
2018-11-07T01:44:38.414Z,7.91
2018-11-07T01:49:42.222Z,7.83
2018-11-07T01:54:45.898Z,7.78
2018-11-07T01:59:49.594Z,7.78
2018-11-07T02:04:53.335Z,7.74
2018-11-07T02:09:56.925Z,7.67
2018-11-07T02:15:02.134Z,7.62
2018-11-07T02:20:07.203Z,7.74
2018-11-07T02:25:11.094Z,7.70
2018-11-07T02:35:28.547Z,7.40
2018-11-07T02:40:32.161Z,7.55
2018-11-07T02:45:35.911Z,7.72
2018-11-07T02:50:40.492Z,7.67
2018-11-07T02:55:44.024Z,7.51
2018-11-07T03:00:47.627Z,7.55
2018-11-07T03:05:51.176Z,7.49
2018-11-07T03:10:55.016Z,7.39
2018-11-07T03:15:58.940Z,7.41
2018-11-07T03:21:02.707Z,7.61
2018-11-07T03:26:06.805Z,7.63
2018-11-07T03:31:10.424Z,7.50
2018-11-07T03:36:14.305Z,7.48
2018-11-07T03:41:17.936Z,7.73
2018-11-07T03:46:21.531Z,7.78
2018-11-07T03:51:25.136Z,7.45
2018-11-07T03:56:28.698Z,7.48
2018-11-07T04:01:32.294Z,7.38
2018-11-07T04:06:35.817Z,7.38
2018-11-07T04:11:39.491Z,7.20
2018-11-07T04:16:43.276Z,7.11
2018-11-07T04:21:47.150Z,7.22
2018-11-07T04:26:51.009Z,7.24
2018-11-07T04:31:54.720Z,7.04
2018-11-07T04:36:58.314Z,7.09
2018-11-07T04:42:01.922Z,7.09
2018-11-07T04:47:05.837Z,7.07
2018-11-07T04:52:09.442Z,6.80
2018-11-07T04:57:12.990Z,6.68
2018-11-07T05:02:16.554Z,6.33
2018-11-07T05:07:20.025Z,6.39
2018-11-07T05:12:23.677Z,6.30
2018-11-07T05:17:27.233Z,6.14
2018-11-07T05:22:30.860Z,6.30
2018-11-07T05:27:36.128Z,6.39
2018-11-07T05:32:39.876Z,6.53
2018-11-07T05:37:43.550Z,6.50
2018-11-07T05:42:47.313Z,6.48
2018-11-07T05:47:50.983Z,6.64
2018-11-07T05:52:54.888Z,6.67
2018-11-07T05:57:58.753Z,6.77
2018-11-07T06:03:02.993Z,6.94
2018-11-07T06:08:07.228Z,7.20
2018-11-07T06:13:10.939Z,7.32
2018-11-07T06:18:14.572Z,7.52
2018-11-07T06:23:18.230Z,7.71
2018-11-07T06:28:22.939Z,7.75
2018-11-07T06:33:28.132Z,7.86
2018-11-07T06:38:33.261Z,8.05
2018-11-07T06:43:37.932Z,8.14
2018-11-07T06:48:43.435Z,8.04
2018-11-07T06:53:48.507Z,7.93
2018-11-07T06:58:55.002Z,7.76
2018-11-07T07:03:58.587Z,7.56
2018-11-07T07:09:03.023Z,7.45
2018-11-07T07:14:06.860Z,7.47
2018-11-07T07:19:10.482Z,7.78
2018-11-07T07:24:14.220Z,8.11
2018-11-07T07:29:17.778Z,8.27
2018-11-07T07:34:21.493Z,8.41
2018-11-07T07:39:25.136Z,8.51
2018-11-07T07:44:28.775Z,8.62
2018-11-07T07:49:32.358Z,8.72
2018-11-07T07:54:36.018Z,8.77
2018-11-07T07:59:39.588Z,8.87
2018-11-07T08:04:43.185Z,9.06
2018-11-07T08:09:46.789Z,9.22
2018-11-07T08:14:50.579Z,9.43
2018-11-07T08:19:54.069Z,9.67
2018-11-07T08:24:57.743Z,9.93
2018-11-07T08:30:01.296Z,10.15
2018-11-07T08:35:05.549Z,10.32
2018-11-07T08:40:14.654Z,10.53
2018-11-07T08:45:18.407Z,10.77
2018-11-07T08:50:22.492Z,11.00
2018-11-07T08:55:26.094Z,11.22
2018-11-07T09:00:32.203Z,11.55
2018-11-07T09:05:35.838Z,11.79
2018-11-07T09:10:39.539Z,12.03
2018-11-07T09:15:43.137Z,12.25
2018-11-07T09:20:46.876Z,12.43
2018-11-07T09:25:50.563Z,12.60
2018-11-07T09:30:54.115Z,12.69
2018-11-07T09:35:57.758Z,12.82
2018-11-07T09:41:02.200Z,12.85
2018-11-07T09:46:06.018Z,13.00
2018-11-07T09:51:09.573Z,13.19
2018-11-07T09:56:13.235Z,13.34
2018-11-07T10:01:16.835Z,13.44
2018-11-07T10:06:20.488Z,13.58
2018-11-07T10:11:24.205Z,13.69
2018-11-07T10:16:27.758Z,13.76
2018-11-07T10:21:31.243Z,13.95
2018-11-07T10:26:34.837Z,14.09
2018-11-07T10:31:38.353Z,14.28
2018-11-07T10:36:41.936Z,14.52
2018-11-07T10:41:45.831Z,14.55
2018-11-07T10:46:49.406Z,14.72
2018-11-07T10:51:53.082Z,14.85
2018-11-07T10:56:56.931Z,15.06
2018-11-07T11:02:02.613Z,15.20
2018-11-07T11:07:06.684Z,15.21
2018-11-07T11:12:10.314Z,15.45
2018-11-07T11:17:13.857Z,15.54
2018-11-07T11:22:17.521Z,15.58
2018-11-07T11:27:21.141Z,15.60
2018-11-07T11:32:25.119Z,15.83
2018-11-07T11:37:28.782Z,15.76
2018-11-07T11:42:32.516Z,15.80
2018-11-07T11:47:36.048Z,15.87
2018-11-07T11:52:39.810Z,16.03
2018-11-07T11:57:43.851Z,16.04
2018-11-07T12:02:47.811Z,16.12
2018-11-07T12:07:52.325Z,16.33
2018-11-07T12:12:56.992Z,16.24
2018-11-07T12:18:00.782Z,16.27
2018-11-07T12:23:04.556Z,16.28
2018-11-07T12:28:08.035Z,16.30
2018-11-07T12:33:11.691Z,16.27
2018-11-07T12:38:15.245Z,16.29
2018-11-07T12:43:22.579Z,16.32
2018-11-07T12:48:26.452Z,16.29
2018-11-07T12:53:30.393Z,16.25
2018-11-07T12:58:34.259Z,16.34
2018-11-07T13:03:38.124Z,16.30
2018-11-07T13:08:41.836Z,16.40
2018-11-07T13:13:45.631Z,16.35
2018-11-07T13:18:49.150Z,16.29
2018-11-07T13:23:52.710Z,16.21
2018-11-07T13:28:56.481Z,16.24
2018-11-07T13:34:00.052Z,16.18
2018-11-07T13:39:04.423Z,16.22
2018-11-07T13:44:07.945Z,16.27
2018-11-07T13:49:11.550Z,16.20
2018-11-07T13:54:16.046Z,16.26
2018-11-07T13:59:19.589Z,16.14
2018-11-07T14:04:23.237Z,16.15
2018-11-07T14:09:26.890Z,16.10
2018-11-07T14:14:30.540Z,15.85
2018-11-07T14:19:34.166Z,15.84
2018-11-07T14:24:37.785Z,15.89
2018-11-07T14:29:41.331Z,15.76
2018-11-07T14:34:45.481Z,15.65
2018-11-07T14:39:48.989Z,15.49
2018-11-07T14:44:52.589Z,15.25
2018-11-07T14:49:56.192Z,15.06
2018-11-07T14:55:00.064Z,14.97
2018-11-07T15:00:04.432Z,14.92
2018-11-07T15:05:09.623Z,14.78
2018-11-07T15:10:14.161Z,14.60
2018-11-07T15:15:19.010Z,14.50
2018-11-07T15:20:22.479Z,14.33
2018-11-07T15:25:26.033Z,14.09
2018-11-07T15:30:29.692Z,13.94
2018-11-07T15:35:33.388Z,13.82
2018-11-07T15:40:36.895Z,13.66
2018-11-07T15:45:40.661Z,13.52
2018-11-07T15:50:50.485Z,13.34
2018-11-07T15:55:54.199Z,13.25
2018-11-07T16:00:57.798Z,13.11
2018-11-07T16:06:01.418Z,12.94
2018-11-07T16:11:05.445Z,12.80
2018-11-07T16:16:09.032Z,12.60
2018-11-07T16:21:12.747Z,12.36
2018-11-07T16:26:16.484Z,12.19
2018-11-07T16:31:23.892Z,12.14
2018-11-07T16:36:27.579Z,12.09
2018-11-07T16:41:31.449Z,11.98
2018-11-07T16:46:35.122Z,11.89
2018-11-07T16:51:38.704Z,11.85
2018-11-07T16:56:42.397Z,11.73
2018-11-07T17:01:46.054Z,11.59
2018-11-07T17:06:49.727Z,11.59
2018-11-07T17:11:53.388Z,11.50
2018-11-07T17:16:57.003Z,11.55
2018-11-07T17:22:00.609Z,11.48
2018-11-07T17:27:04.273Z,11.51
2018-11-07T17:32:08.052Z,11.62
2018-11-07T17:37:11.718Z,11.68
2018-11-07T17:42:15.290Z,11.69
2018-11-07T17:47:18.827Z,11.83
2018-11-07T17:52:22.507Z,12.01
2018-11-07T17:57:39.117Z,12.26
2018-11-07T18:02:42.836Z,12.38
2018-11-07T18:07:46.754Z,12.39
2018-11-07T18:12:50.361Z,12.45
2018-11-07T18:17:57.802Z,12.46
2018-11-07T18:23:01.462Z,12.52
2018-11-07T18:28:05.605Z,12.57
2018-11-07T18:33:09.509Z,12.65
2018-11-07T18:38:13.279Z,12.58
2018-11-07T18:43:16.995Z,12.51
2018-11-07T18:48:20.612Z,12.43
2018-11-07T18:53:31.279Z,12.33
2018-11-07T18:58:34.883Z,12.34
2018-11-07T19:03:38.488Z,12.32
2018-11-07T19:08:42.196Z,12.34
2018-11-07T19:13:45.814Z,12.35
2018-11-07T19:18:49.542Z,12.42
2018-11-07T19:23:53.241Z,12.42
2018-11-07T19:28:56.880Z,12.49
2018-11-07T19:34:00.539Z,12.47
2018-11-07T19:39:05.403Z,12.51
2018-11-07T19:44:10.451Z,12.51
2018-11-07T19:49:14.449Z,12.46
2018-11-07T19:54:19.281Z,12.44
2018-11-07T19:59:22.907Z,12.40
2018-11-07T20:04:26.751Z,12.32
2018-11-07T20:09:30.322Z,12.29
2018-11-07T20:14:33.872Z,12.24
2018-11-07T20:19:37.412Z,12.21
2018-11-07T20:24:41.071Z,12.22
2018-11-07T20:29:44.954Z,12.19
2018-11-07T20:34:48.681Z,12.12
2018-11-07T20:39:52.840Z,12.11
2018-11-07T20:44:56.422Z,12.01
2018-11-07T20:50:00.352Z,11.98
2018-11-07T20:55:04.294Z,11.87
2018-11-07T21:00:13.968Z,11.83
2018-11-07T21:05:23.713Z,11.78
2018-11-07T21:10:27.460Z,11.72
2018-11-07T21:15:30.944Z,11.68
2018-11-07T21:20:34.481Z,11.61
2018-11-07T21:25:38.061Z,11.66
2018-11-07T21:30:41.529Z,11.72
2018-11-07T21:35:45.426Z,11.73
2018-11-07T21:40:49.256Z,11.76
2018-11-07T21:45:52.794Z,11.76
2018-11-07T21:50:56.439Z,11.75
2018-11-07T21:55:59.976Z,11.72
2018-11-07T22:01:03.605Z,11.70
2018-11-07T22:06:07.238Z,11.69
2018-11-07T22:11:10.990Z,11.69
2018-11-07T22:16:14.711Z,11.70
2018-11-07T22:21:18.359Z,11.64
2018-11-07T22:26:21.880Z,11.60
2018-11-07T22:31:25.515Z,11.61
2018-11-07T22:36:29.057Z,11.57
2018-11-07T22:41:32.703Z,11.57
2018-11-07T22:46:36.340Z,11.48
2018-11-07T22:51:42.197Z,11.45
2018-11-07T22:56:45.817Z,11.47
2018-11-07T23:01:49.445Z,11.51
2018-11-07T23:06:52.973Z,11.56
2018-11-07T23:11:56.514Z,11.63
2018-11-07T23:17:00.154Z,11.70
2018-11-07T23:22:03.885Z,11.79
2018-11-07T23:27:07.611Z,11.83
2018-11-07T23:32:11.362Z,11.90
2018-11-07T23:37:15.980Z,11.91
2018-11-07T23:42:19.580Z,11.91
2018-11-07T23:47:23.126Z,11.86
2018-11-07T23:52:32.094Z,11.88
2018-11-07T23:57:35.701Z,11.84
